createdAt,value
2022-12-28T00:01:45.066Z,89.07
2022-12-28T00:04:17.670Z,89.43
2022-12-28T00:06:45.463Z,88.56
2022-12-28T00:09:12.834Z,88.78
2022-12-28T00:11:39.679Z,88.74
2022-12-28T00:14:06.212Z,89.00
2022-12-28T00:16:35.374Z,88.95
2022-12-28T00:19:04.650Z,89.73
2022-12-28T00:21:32.103Z,88.93
2022-12-28T00:24:00.067Z,88.73
2022-12-28T00:26:28.986Z,89.69
2022-12-28T00:29:04.294Z,90.17
2022-12-28T00:31:33.588Z,91.65
2022-12-28T00:34:00.787Z,91.32
2022-12-28T00:37:08.790Z,91.11
2022-12-28T00:39:14.777Z,91.44
2022-12-28T00:41:41.265Z,91.72
2022-12-28T00:44:07.816Z,91.96
2022-12-28T00:46:34.390Z,91.76
2022-12-28T00:49:00.917Z,91.70
2022-12-28T00:51:29.878Z,91.65
2022-12-28T00:53:56.364Z,91.39
2022-12-28T00:56:23.007Z,89.93
2022-12-28T00:58:50.081Z,91.01
2022-12-28T01:01:19.559Z,90.62
2022-12-28T01:03:46.747Z,91.76
2022-12-28T01:06:15.940Z,91.70
2022-12-28T01:08:43.161Z,92.00
2022-12-28T01:11:16.017Z,90.96
2022-12-28T01:13:42.644Z,91.01
2022-12-28T01:16:20.693Z,91.02
2022-12-28T01:18:47.713Z,91.12
2022-12-28T01:21:21.017Z,91.48
2022-12-28T01:23:48.981Z,91.61
2022-12-28T01:26:16.275Z,91.64
2022-12-28T01:28:42.870Z,92.96
2022-12-28T01:31:12.687Z,90.72
2022-12-28T01:33:39.606Z,90.18
2022-12-28T01:36:14.031Z,90.09
2022-12-28T01:38:41.939Z,90.00
2022-12-28T01:41:10.613Z,89.81
2022-12-28T01:43:43.127Z,89.93
2022-12-28T01:46:13.076Z,91.59
2022-12-28T01:48:56.330Z,92.52
2022-12-28T01:51:25.538Z,90.86
2022-12-28T01:53:53.571Z,89.12
2022-12-28T01:56:21.984Z,90.20
2022-12-28T01:58:49.719Z,91.16
2022-12-28T02:01:17.521Z,89.14
2022-12-28T02:03:44.240Z,89.54
2022-12-28T02:06:13.139Z,90.32
2022-12-28T02:09:08.190Z,91.12
2022-12-28T02:11:36.066Z,91.71
2022-12-28T02:14:04.779Z,91.48
2022-12-28T02:16:31.364Z,91.69
2022-12-28T02:18:58.186Z,92.43
2022-12-28T02:21:57.185Z,91.78
2022-12-28T02:24:39.038Z,93.63
2022-12-28T02:27:23.734Z,94.09
2022-12-28T02:30:08.274Z,95.11
2022-12-28T02:32:41.018Z,95.78
2022-12-28T02:35:15.439Z,94.92
2022-12-28T02:37:51.629Z,95.69
2022-12-28T02:40:25.103Z,95.19
2022-12-28T02:42:54.402Z,95.69
2022-12-28T02:45:48.737Z,96.36
2022-12-28T02:48:35.250Z,95.39
2022-12-28T02:51:10.652Z,95.76
2022-12-28T02:53:54.706Z,94.51
2022-12-28T02:56:42.862Z,92.16
2022-12-28T02:59:09.365Z,92.27
2022-12-28T03:02:09.858Z,94.47
2022-12-28T03:05:07.555Z,96.75
2022-12-28T03:08:11.572Z,97.19
2022-12-28T03:10:43.896Z,99.86
2022-12-28T03:13:39.237Z,100.00
2022-12-28T03:16:10.477Z,100.00
2022-12-28T03:19:02.821Z,100.00
2022-12-28T03:21:49.780Z,100.00
2022-12-28T03:24:39.728Z,100.00
2022-12-28T03:27:29.505Z,100.00
2022-12-28T03:30:22.429Z,100.00
2022-12-28T03:32:50.304Z,100.00
2022-12-28T03:35:20.459Z,100.00
2022-12-28T03:38:03.362Z,100.00
2022-12-28T03:40:47.186Z,100.00
2022-12-28T03:43:39.672Z,100.00
2022-12-28T03:46:20.285Z,100.00
2022-12-28T03:48:47.604Z,100.00
2022-12-28T03:51:16.174Z,100.00
2022-12-28T03:53:45.768Z,100.00
2022-12-28T03:56:14.958Z,100.00
2022-12-28T03:58:41.558Z,100.00
2022-12-28T04:01:10.416Z,100.00
2022-12-28T04:03:37.192Z,100.00
2022-12-28T04:06:04.392Z,100.00
2022-12-28T04:08:32.138Z,100.00
2022-12-28T04:10:59.844Z,100.00
2022-12-28T04:13:32.039Z,100.00
2022-12-28T04:15:58.603Z,100.00
2022-12-28T04:18:25.222Z,100.00
2022-12-28T04:20:51.926Z,100.00
2022-12-28T04:23:18.496Z,100.00
2022-12-28T04:25:45.022Z,100.00
2022-12-28T04:28:11.557Z,100.00
2022-12-28T04:30:38.076Z,100.00
2022-12-28T04:33:04.632Z,100.00
2022-12-28T04:35:32.416Z,100.00
2022-12-28T04:37:58.966Z,100.00
2022-12-28T04:40:25.437Z,100.00
2022-12-28T04:42:51.933Z,100.00
2022-12-28T04:45:22.253Z,100.00
2022-12-28T04:47:48.972Z,100.00
2022-12-28T04:50:15.511Z,100.00
2022-12-28T04:52:43.289Z,100.00
2022-12-28T04:55:32.852Z,100.00
2022-12-28T04:57:56.327Z,100.00
2022-12-28T05:00:22.950Z,100.00
2022-12-28T05:02:49.567Z,100.00
2022-12-28T05:05:16.191Z,100.00
2022-12-28T05:07:45.482Z,100.00
2022-12-28T05:10:15.055Z,100.00
2022-12-28T05:12:43.663Z,100.00
2022-12-28T05:15:10.560Z,100.00
2022-12-28T05:17:37.330Z,100.00
2022-12-28T05:20:05.088Z,100.00
2022-12-28T05:22:34.028Z,100.00
2022-12-28T05:25:04.691Z,100.00
2022-12-28T05:27:31.218Z,100.00
2022-12-28T05:29:57.795Z,100.00
2022-12-28T05:32:24.337Z,100.00
2022-12-28T05:34:50.872Z,100.00
2022-12-28T05:37:21.969Z,100.00
2022-12-28T05:39:48.856Z,100.00
2022-12-28T05:42:15.366Z,100.00
2022-12-28T05:44:42.024Z,100.00
2022-12-28T05:47:08.649Z,100.00
2022-12-28T05:49:35.180Z,100.00
2022-12-28T05:52:01.845Z,100.00
2022-12-28T05:54:28.362Z,100.00
2022-12-28T05:56:54.899Z,100.00
2022-12-28T05:59:21.684Z,100.00
2022-12-28T06:01:48.329Z,100.00
2022-12-28T06:04:18.161Z,100.00
2022-12-28T06:06:46.503Z,100.00
2022-12-28T06:09:13.647Z,100.00
2022-12-28T06:11:40.819Z,100.00
2022-12-28T06:14:07.630Z,100.00
2022-12-28T06:16:38.220Z,100.00
2022-12-28T06:19:10.492Z,100.00
2022-12-28T06:21:39.118Z,100.00
2022-12-28T06:24:06.854Z,100.00
2022-12-28T06:26:35.583Z,100.00
2022-12-28T06:29:02.234Z,100.00
2022-12-28T06:31:37.652Z,100.00
2022-12-28T06:34:06.441Z,100.00
2022-12-28T06:36:36.654Z,100.00
2022-12-28T06:39:05.387Z,97.68
2022-12-28T06:41:31.940Z,99.75
2022-12-28T06:43:59.413Z,100.00
2022-12-28T06:46:28.453Z,100.00
2022-12-28T06:48:55.408Z,100.00
2022-12-28T06:51:23.554Z,100.00
2022-12-28T06:53:51.383Z,100.00
2022-12-28T06:56:30.869Z,100.00
2022-12-28T06:59:02.807Z,100.00
2022-12-28T07:01:35.838Z,100.00
2022-12-28T07:04:05.172Z,100.00
2022-12-28T07:06:36.346Z,100.00
2022-12-28T07:09:05.400Z,100.00
2022-12-28T07:11:32.031Z,100.00
2022-12-28T07:13:58.930Z,100.00
2022-12-28T07:16:26.910Z,100.00
2022-12-28T07:18:53.701Z,100.00
2022-12-28T07:21:24.198Z,100.00
2022-12-28T07:23:53.145Z,100.00
2022-12-28T07:26:22.410Z,100.00
2022-12-28T07:28:51.446Z,100.00
2022-12-28T07:31:23.430Z,100.00
2022-12-28T07:33:52.034Z,100.00
2022-12-28T07:36:20.872Z,100.00
2022-12-28T07:38:47.699Z,100.00
2022-12-28T07:41:18.322Z,100.00
2022-12-28T07:43:45.224Z,100.00
2022-12-28T07:46:17.692Z,100.00
2022-12-28T07:48:45.280Z,100.00
2022-12-28T07:51:17.947Z,100.00
2022-12-28T07:53:46.734Z,100.00
2022-12-28T07:56:14.199Z,100.00
2022-12-28T08:01:12.866Z,86.86
2022-12-28T08:03:41.930Z,79.88
2022-12-28T08:06:09.860Z,71.82
2022-12-28T08:08:38.047Z,65.99
2022-12-28T08:11:07.139Z,64.38
2022-12-28T08:13:36.090Z,60.93
2022-12-28T08:16:06.083Z,59.85
2022-12-28T08:18:33.328Z,59.04
2022-12-28T08:21:05.177Z,59.11
2022-12-28T08:23:32.537Z,60.18
2022-12-28T08:26:14.200Z,62.79
2022-12-28T08:28:41.622Z,63.13
2022-12-28T08:31:11.611Z,66.99
2022-12-28T08:33:38.376Z,69.00
2022-12-28T08:36:06.327Z,72.57
2022-12-28T08:38:33.828Z,75.34
2022-12-28T08:41:03.026Z,78.52
2022-12-28T08:43:30.890Z,80.95
2022-12-28T08:46:14.925Z,83.81
2022-12-28T08:48:41.604Z,86.82
2022-12-28T08:51:31.847Z,88.26
2022-12-28T08:53:58.650Z,89.16
2022-12-28T08:56:31.129Z,89.96
2022-12-28T08:58:59.950Z,90.34
2022-12-28T09:01:43.673Z,91.04
2022-12-28T09:04:19.576Z,92.56
2022-12-28T09:06:46.706Z,93.25
2022-12-28T09:09:16.011Z,93.13
2022-12-28T09:11:43.618Z,93.48
2022-12-28T09:14:18.484Z,94.98
2022-12-28T09:16:49.224Z,94.96
2022-12-28T09:19:15.925Z,93.20
2022-12-28T09:21:44.880Z,93.03
2022-12-28T09:24:13.258Z,92.46
2022-12-28T09:26:40.310Z,92.70
2022-12-28T09:29:10.693Z,93.86
2022-12-28T09:31:38.483Z,92.40
2022-12-28T09:36:55.830Z,91.57
2022-12-28T09:39:26.091Z,90.83
2022-12-28T09:42:19.119Z,87.17
2022-12-28T09:45:04.206Z,85.03
2022-12-28T09:47:41.059Z,81.63
2022-12-28T09:50:13.351Z,79.40
2022-12-28T09:53:17.371Z,78.50
2022-12-28T09:55:51.971Z,75.75
2022-12-28T09:58:19.334Z,72.79
2022-12-28T10:00:57.893Z,69.87
2022-12-28T10:03:34.863Z,66.75
2022-12-28T10:06:02.441Z,66.00
2022-12-28T10:08:29.520Z,65.78
2022-12-28T10:11:00.663Z,66.14
2022-12-28T10:13:54.265Z,65.91
2022-12-28T10:16:24.869Z,64.60
2022-12-28T10:18:52.556Z,64.02
2022-12-28T10:21:24.172Z,63.18
2022-12-28T10:24:29.862Z,61.63
2022-12-28T10:26:46.031Z,60.94
2022-12-28T10:29:19.177Z,60.82
2022-12-28T10:31:59.704Z,62.04
2022-12-28T10:34:33.475Z,60.32
2022-12-28T10:37:15.929Z,60.31
2022-12-28T10:40:00.777Z,60.39
2022-12-28T10:42:38.665Z,61.75
2022-12-28T10:45:08.003Z,63.67
2022-12-28T10:47:41.984Z,64.54
2022-12-28T10:50:40.543Z,64.93
2022-12-28T10:53:23.764Z,65.40
2022-12-28T10:56:22.936Z,66.05
2022-12-28T10:58:56.836Z,65.40
2022-12-28T11:01:29.455Z,65.88
2022-12-28T11:03:56.090Z,65.51
2022-12-28T11:06:47.391Z,65.60
2022-12-28T11:09:18.088Z,65.16
2022-12-28T11:11:46.998Z,65.32
2022-12-28T11:14:37.634Z,66.39
2022-12-28T11:17:29.470Z,67.06
2022-12-28T11:20:14.127Z,66.72
2022-12-28T11:22:40.700Z,66.19
2022-12-28T11:25:07.985Z,64.62
2022-12-28T11:27:36.174Z,64.27
2022-12-28T11:30:17.526Z,63.21
2022-12-28T11:32:56.765Z,62.73
2022-12-28T11:35:28.395Z,61.72
2022-12-28T11:38:00.155Z,60.99
2022-12-28T11:40:45.248Z,59.74
2022-12-28T11:43:30.586Z,58.30
2022-12-28T11:45:59.429Z,56.55
2022-12-28T11:48:44.182Z,56.48
2022-12-28T11:51:25.781Z,56.28
2022-12-28T11:53:57.400Z,57.05
2022-12-28T11:56:27.820Z,59.25
2022-12-28T11:59:00.177Z,60.25
2022-12-28T12:01:29.872Z,59.67
2022-12-28T12:03:59.606Z,59.16
2022-12-28T12:06:53.856Z,58.66
2022-12-28T12:09:29.509Z,57.65
2022-12-28T12:11:59.174Z,56.81
2022-12-28T12:14:44.293Z,56.15
2022-12-28T12:17:23.109Z,56.88
2022-12-28T12:19:56.016Z,57.40
2022-12-28T12:22:29.297Z,58.77
2022-12-28T12:25:16.091Z,60.41
2022-12-28T12:27:55.124Z,61.44
2022-12-28T12:30:26.164Z,62.66
2022-12-28T12:32:57.605Z,64.04
2022-12-28T12:35:28.050Z,65.22
2022-12-28T12:38:29.513Z,65.86
2022-12-28T12:41:35.140Z,67.07
2022-12-28T12:44:26.446Z,67.99
2022-12-28T12:47:20.089Z,68.02
2022-12-28T12:50:07.342Z,69.36
2022-12-28T12:52:42.485Z,69.73
2022-12-28T12:55:25.692Z,68.91
2022-12-28T12:57:58.723Z,83.21
2022-12-28T13:00:38.093Z,76.61
2022-12-28T13:03:24.906Z,72.49
2022-12-28T13:05:58.291Z,67.19
2022-12-28T13:08:37.942Z,64.07
2022-12-28T13:11:09.059Z,60.97
2022-12-28T13:13:38.447Z,59.54
2022-12-28T13:16:09.703Z,58.43
2022-12-28T13:18:45.292Z,57.17
2022-12-28T13:21:20.435Z,57.96
2022-12-28T13:23:47.166Z,58.71
2022-12-28T13:26:15.573Z,58.82
2022-12-28T13:29:03.440Z,59.19
2022-12-28T13:31:41.346Z,58.74
2022-12-28T13:34:13.613Z,58.49
2022-12-28T13:37:02.987Z,57.90
2022-12-28T13:39:39.907Z,56.92
2022-12-28T13:42:52.296Z,58.06
2022-12-28T13:45:20.806Z,57.51
2022-12-28T13:47:52.051Z,58.65
2022-12-28T13:50:39.673Z,59.68
2022-12-28T13:53:13.572Z,60.14
2022-12-28T13:55:54.149Z,65.75
2022-12-28T13:58:30.332Z,63.74
2022-12-28T14:01:00.826Z,62.90
2022-12-28T14:03:32.199Z,63.34
2022-12-28T14:06:11.327Z,62.89
2022-12-28T14:08:39.611Z,62.71
2022-12-28T14:11:34.085Z,62.49
2022-12-28T14:14:02.129Z,62.13
2022-12-28T14:16:41.838Z,62.12
2022-12-28T14:19:11.417Z,61.55
2022-12-28T14:21:45.732Z,61.40
2022-12-28T14:24:16.001Z,61.04
2022-12-28T14:26:53.816Z,61.63
2022-12-28T14:29:32.819Z,61.71
2022-12-28T14:32:14.591Z,61.19
2022-12-28T14:34:56.009Z,62.09
2022-12-28T14:37:28.509Z,62.95
2022-12-28T14:40:00.474Z,63.49
2022-12-28T14:42:30.545Z,63.21
2022-12-28T14:45:24.203Z,62.80
2022-12-28T14:47:58.253Z,62.89
2022-12-28T14:50:27.739Z,62.62
2022-12-28T14:53:19.222Z,61.97
2022-12-28T14:56:06.824Z,61.92
2022-12-28T14:58:50.617Z,63.37
2022-12-28T15:01:18.699Z,63.42
2022-12-28T15:04:05.611Z,64.21
2022-12-28T15:06:32.969Z,63.28
2022-12-28T15:09:01.272Z,64.04
2022-12-28T15:11:31.243Z,63.07
2022-12-28T15:14:00.763Z,61.66
2022-12-28T15:16:30.153Z,61.63
2022-12-28T15:18:59.458Z,61.50
2022-12-28T15:21:28.843Z,61.40
2022-12-28T15:23:58.672Z,66.48
2022-12-28T15:26:27.739Z,61.79
2022-12-28T15:28:54.253Z,62.06
2022-12-28T15:31:21.545Z,61.68
2022-12-28T15:33:48.626Z,61.74
2022-12-28T15:36:20.701Z,62.65
2022-12-28T15:38:48.473Z,62.17
2022-12-28T15:41:35.169Z,62.64
2022-12-28T15:44:02.330Z,63.01
2022-12-28T15:46:32.282Z,62.75
2022-12-28T15:49:01.161Z,63.30
2022-12-28T15:51:31.773Z,63.14
2022-12-28T15:53:59.839Z,62.57
2022-12-28T15:56:31.502Z,62.47
2022-12-28T15:59:02.819Z,63.09
2022-12-28T16:01:31.758Z,62.65
2022-12-28T16:04:02.588Z,62.57
2022-12-28T16:06:37.114Z,63.08
2022-12-28T16:09:07.213Z,63.93
2022-12-28T16:11:36.663Z,64.43
2022-12-28T16:14:05.405Z,65.45
2022-12-28T16:16:38.787Z,66.02
2022-12-28T16:19:06.979Z,65.22
2022-12-28T16:21:39.412Z,65.01
2022-12-28T16:24:09.216Z,64.35
2022-12-28T16:26:36.083Z,64.72
2022-12-28T16:29:02.984Z,64.93
2022-12-28T16:31:35.211Z,65.30
2022-12-28T16:34:11.613Z,65.43
2022-12-28T16:36:38.895Z,65.49
2022-12-28T16:39:07.759Z,65.29
2022-12-28T16:41:37.423Z,65.48
2022-12-28T16:44:12.651Z,65.94
2022-12-28T16:46:39.259Z,65.58
2022-12-28T16:49:05.859Z,65.70
2022-12-28T16:51:32.412Z,66.15
2022-12-28T16:54:00.846Z,65.98
2022-12-28T16:56:27.352Z,66.12
2022-12-28T16:59:00.617Z,66.20
2022-12-28T17:01:27.818Z,66.17
2022-12-28T17:04:00.116Z,65.79
2022-12-28T17:06:32.916Z,66.99
2022-12-28T17:09:04.041Z,67.35
2022-12-28T17:11:33.516Z,67.66
2022-12-28T17:14:12.783Z,67.87
2022-12-28T17:16:39.737Z,68.68
2022-12-28T17:19:06.741Z,69.22
2022-12-28T17:21:34.051Z,68.54
2022-12-28T17:24:03.981Z,68.13
2022-12-28T17:26:33.252Z,67.75
2022-12-28T17:29:04.290Z,67.93
2022-12-28T17:31:31.562Z,68.60
2022-12-28T17:34:01.164Z,68.98
2022-12-28T17:36:27.914Z,69.00
2022-12-28T17:38:54.523Z,69.43
2022-12-28T17:41:23.829Z,68.39
2022-12-28T17:43:55.469Z,68.97
2022-12-28T17:46:23.583Z,69.89
2022-12-28T17:48:52.916Z,70.22
2022-12-28T17:52:06.426Z,69.92
2022-12-28T17:54:43.055Z,70.09
2022-12-28T17:57:14.287Z,70.89
2022-12-28T17:59:40.888Z,71.49
2022-12-28T18:02:12.737Z,73.07
2022-12-28T18:04:40.424Z,74.31
2022-12-28T18:07:08.046Z,74.52
2022-12-28T18:09:34.794Z,75.21
2022-12-28T18:12:04.410Z,75.06
2022-12-28T18:14:34.224Z,75.10
2022-12-28T18:17:03.868Z,75.06
2022-12-28T18:19:33.321Z,75.18
2022-12-28T18:22:03.467Z,74.43
2022-12-28T18:24:32.889Z,74.48
2022-12-28T18:27:01.565Z,74.48
2022-12-28T18:29:30.749Z,74.71
2022-12-28T18:31:57.223Z,75.25
2022-12-28T18:34:23.712Z,75.22
2022-12-28T18:36:50.264Z,75.19
2022-12-28T18:39:21.805Z,76.07
2022-12-28T18:41:48.329Z,76.23
2022-12-28T18:44:14.807Z,81.64
2022-12-28T18:46:41.563Z,78.43
2022-12-28T18:49:08.151Z,76.51
2022-12-28T18:51:34.771Z,76.07
2022-12-28T18:54:04.124Z,75.66
2022-12-28T18:56:32.700Z,75.05
2022-12-28T18:58:59.294Z,74.79
2022-12-28T19:04:16.230Z,75.33
2022-12-28T19:06:43.720Z,74.35
2022-12-28T19:09:11.261Z,74.23
2022-12-28T19:11:39.169Z,74.17
2022-12-28T19:14:07.509Z,74.39
2022-12-28T19:16:34.893Z,73.86
2022-12-28T19:19:07.526Z,74.04
2022-12-28T19:21:38.147Z,73.72
2022-12-28T19:24:09.158Z,73.57
2022-12-28T19:26:36.132Z,72.65
2022-12-28T19:29:05.785Z,71.33
2022-12-28T19:31:36.219Z,71.95
2022-12-28T19:34:05.714Z,71.60
2022-12-28T19:36:35.331Z,72.07
2022-12-28T19:39:05.431Z,72.67
2022-12-28T19:41:35.786Z,72.28
2022-12-28T19:44:05.744Z,70.92
2022-12-28T19:46:35.815Z,71.10
2022-12-28T19:49:05.695Z,71.21
2022-12-28T19:51:35.279Z,71.53
2022-12-28T19:54:07.785Z,71.91
2022-12-28T19:56:56.008Z,71.87
2022-12-28T19:59:22.612Z,72.74
2022-12-28T20:01:49.271Z,72.93
2022-12-28T20:04:15.899Z,73.24
2022-12-28T20:06:44.058Z,73.87
2022-12-28T20:09:11.792Z,74.09
2022-12-28T20:11:38.862Z,74.32
2022-12-28T20:18:31.006Z,74.98
2022-12-28T20:21:22.820Z,74.58
2022-12-28T20:23:51.035Z,75.26
2022-12-28T20:26:23.721Z,75.07
2022-12-28T20:28:50.897Z,75.05
2022-12-28T20:31:17.523Z,74.60
2022-12-28T20:33:44.721Z,74.73
2022-12-28T20:36:17.483Z,74.93
2022-12-28T20:38:44.342Z,75.47
2022-12-28T20:41:35.671Z,75.22
2022-12-28T20:44:08.325Z,75.82
2022-12-28T20:46:35.609Z,75.68
2022-12-28T20:51:51.703Z,75.08
2022-12-28T20:54:19.493Z,75.54
2022-12-28T20:56:52.386Z,76.03
2022-12-28T20:59:21.444Z,76.58
2022-12-28T21:01:48.167Z,76.16
2022-12-28T21:04:15.076Z,76.70
2022-12-28T21:06:42.702Z,76.69
2022-12-28T21:09:09.200Z,76.64
2022-12-28T21:11:35.741Z,76.18
2022-12-28T21:14:03.678Z,76.58
2022-12-28T21:16:30.238Z,76.66
2022-12-28T21:18:58.988Z,77.44
2022-12-28T21:21:25.636Z,77.98
2022-12-28T21:23:55.174Z,77.37
2022-12-28T21:26:22.086Z,77.33
2022-12-28T21:28:48.711Z,79.21
2022-12-28T21:31:15.630Z,81.00
2022-12-28T21:33:42.443Z,80.19
2022-12-28T21:36:16.032Z,80.51
2022-12-28T21:38:44.196Z,80.78
2022-12-28T21:41:16.531Z,80.90
2022-12-28T21:43:43.231Z,80.01
2022-12-28T21:46:14.571Z,79.66
2022-12-28T21:48:41.250Z,80.54
2022-12-28T21:51:36.358Z,80.52
2022-12-28T21:54:14.328Z,81.67
2022-12-28T21:56:42.679Z,82.09
2022-12-28T21:59:10.662Z,81.60
2022-12-28T22:01:56.550Z,81.55
2022-12-28T22:04:42.280Z,81.78
2022-12-28T22:07:11.203Z,81.63
2022-12-28T22:09:56.877Z,82.49
2022-12-28T22:12:37.572Z,82.73
2022-12-28T22:15:37.592Z,82.51
2022-12-28T22:18:07.747Z,82.39
2022-12-28T22:20:40.028Z,82.16
2022-12-28T22:23:09.625Z,82.12
2022-12-28T22:25:39.983Z,80.39
2022-12-28T22:28:09.185Z,80.85
2022-12-28T22:30:38.631Z,80.95
2022-12-28T22:33:08.092Z,79.85
2022-12-28T22:35:35.118Z,80.08
2022-12-28T22:38:01.993Z,79.50
2022-12-28T22:40:29.339Z,78.23
2022-12-28T22:42:56.174Z,77.46
2022-12-28T22:45:23.962Z,77.84
2022-12-28T22:47:52.870Z,77.28
2022-12-28T22:50:19.977Z,77.46
2022-12-28T22:52:47.213Z,77.36
2022-12-28T22:55:14.406Z,76.27
2022-12-28T22:57:41.314Z,77.00
2022-12-28T23:00:14.283Z,74.89
2022-12-28T23:02:41.773Z,74.10
2022-12-28T23:05:12.016Z,73.42
2022-12-28T23:07:42.604Z,74.26
2022-12-28T23:10:10.408Z,73.48
2022-12-28T23:12:37.210Z,73.27
2022-12-28T23:15:16.375Z,73.53
2022-12-28T23:17:43.025Z,71.70
2022-12-28T23:20:31.684Z,71.58
2022-12-28T23:22:58.309Z,71.66
2022-12-28T23:25:44.596Z,71.17
2022-12-28T23:28:14.422Z,72.16
2022-12-28T23:30:44.359Z,72.06
2022-12-28T23:33:10.952Z,72.37
2022-12-28T23:35:37.498Z,72.62
2022-12-28T23:38:03.998Z,73.02
2022-12-28T23:40:30.517Z,73.24
2022-12-28T23:42:57.068Z,72.62
2022-12-28T23:45:24.045Z,73.18
2022-12-28T23:47:53.149Z,73.61
2022-12-28T23:50:20.072Z,73.58
2022-12-28T23:52:46.670Z,73.50
2022-12-28T23:55:13.275Z,74.11
2022-12-28T23:57:42.034Z,74.01
